createdAt,value
2022-10-05T00:00:00.081Z,97.76
2022-10-05T00:02:26.900Z,98.32
2022-10-05T00:04:56.494Z,98.92
2022-10-05T00:07:24.222Z,98.94
2022-10-05T00:09:58.689Z,98.65
2022-10-05T00:12:27.278Z,97.94
2022-10-05T00:15:00.766Z,98.62
2022-10-05T00:17:30.091Z,98.22
2022-10-05T00:19:56.740Z,98.08
2022-10-05T00:22:32.148Z,98.82
2022-10-05T00:25:01.451Z,99.30
2022-10-05T00:27:37.451Z,99.89
2022-10-05T00:30:12.951Z,100.00
2022-10-05T00:32:39.409Z,99.95
2022-10-05T00:35:06.483Z,99.88
2022-10-05T00:37:33.123Z,100.00
2022-10-05T00:39:59.498Z,99.46
2022-10-05T00:43:08.727Z,98.05
2022-10-05T00:45:45.860Z,98.91
2022-10-05T00:48:39.039Z,97.81
2022-10-05T00:51:20.380Z,99.09
2022-10-05T00:53:56.703Z,98.48
2022-10-05T00:56:54.018Z,98.92
2022-10-05T00:59:43.126Z,98.42
2022-10-05T01:02:15.936Z,99.03
2022-10-05T01:04:54.019Z,99.02
2022-10-05T01:07:47.774Z,99.68
2022-10-05T01:10:37.210Z,99.34
2022-10-05T01:13:22.856Z,98.93
2022-10-05T01:16:04.608Z,99.55
2022-10-05T01:19:12.763Z,100.00
2022-10-05T01:21:49.962Z,99.83
2022-10-05T01:24:30.670Z,99.00
2022-10-05T01:27:21.373Z,99.88
2022-10-05T01:29:58.111Z,99.86
2022-10-05T01:32:48.347Z,100.00
2022-10-05T01:35:19.902Z,99.47
2022-10-05T01:38:20.209Z,99.25
2022-10-05T01:40:57.735Z,98.86
2022-10-05T01:43:27.074Z,99.98
2022-10-05T01:46:00.451Z,98.87
2022-10-05T01:48:42.656Z,98.92
2022-10-05T01:51:25.690Z,99.24
2022-10-05T01:54:34.655Z,100.00
2022-10-05T01:57:22.975Z,99.71
2022-10-05T02:00:10.750Z,99.85
2022-10-05T02:02:50.481Z,100.00
2022-10-05T02:05:22.321Z,100.00
2022-10-05T02:08:01.668Z,100.00
2022-10-05T02:10:36.335Z,100.00
2022-10-05T02:13:26.852Z,99.01
2022-10-05T02:16:00.412Z,99.83
2022-10-05T02:18:32.628Z,99.61
2022-10-05T02:21:04.215Z,99.22
2022-10-05T02:23:35.574Z,99.99
2022-10-05T02:26:03.102Z,99.29
2022-10-05T02:28:37.747Z,100.00
2022-10-05T02:31:12.503Z,99.60
2022-10-05T02:33:39.374Z,100.00
2022-10-05T02:36:22.917Z,99.75
2022-10-05T02:38:59.789Z,100.00
2022-10-05T02:41:40.774Z,100.00
2022-10-05T02:44:33.137Z,100.00
2022-10-05T02:47:10.467Z,100.00
2022-10-05T02:49:56.461Z,100.00
2022-10-05T02:52:53.247Z,100.00
2022-10-05T02:55:42.054Z,100.00
2022-10-05T02:58:23.260Z,99.55
2022-10-05T03:01:07.299Z,100.00
2022-10-05T03:03:47.018Z,98.98
2022-10-05T03:06:23.003Z,99.96
2022-10-05T03:09:02.877Z,100.00
2022-10-05T03:11:56.415Z,99.72
2022-10-05T03:14:42.920Z,100.00
2022-10-05T03:17:22.296Z,99.52
2022-10-05T03:20:20.053Z,99.42
2022-10-05T03:22:57.961Z,99.36
2022-10-05T03:25:47.622Z,99.04
2022-10-05T03:28:23.562Z,99.19
2022-10-05T03:31:22.909Z,99.25
2022-10-05T03:34:01.843Z,99.31
2022-10-05T03:36:50.237Z,100.00
2022-10-05T03:39:46.382Z,100.00
2022-10-05T03:42:21.455Z,100.00
2022-10-05T03:45:07.302Z,100.00
2022-10-05T03:47:46.653Z,99.33
2022-10-05T03:50:32.253Z,99.40
2022-10-05T03:53:09.229Z,98.88
2022-10-05T03:55:49.646Z,98.40
2022-10-05T03:58:19.302Z,98.43
2022-10-05T04:00:52.011Z,97.45
2022-10-05T04:03:33.722Z,98.11
2022-10-05T04:06:13.622Z,97.77
2022-10-05T04:08:48.243Z,98.15
2022-10-05T04:11:22.908Z,97.63
2022-10-05T04:13:59.449Z,97.25
2022-10-05T04:16:30.981Z,96.77
2022-10-05T04:19:04.923Z,96.67
2022-10-05T04:22:00.465Z,97.31
2022-10-05T04:24:56.222Z,97.16
2022-10-05T04:27:30.895Z,96.92
2022-10-05T04:30:09.221Z,97.07
2022-10-05T04:32:43.305Z,96.64
2022-10-05T04:35:31.070Z,96.69
2022-10-05T04:38:19.132Z,97.00
2022-10-05T04:41:14.762Z,97.27
2022-10-05T04:44:19.384Z,96.70
2022-10-05T04:47:09.000Z,97.48
2022-10-05T04:50:06.019Z,96.72
2022-10-05T04:52:49.215Z,96.45
2022-10-05T04:55:31.473Z,97.10
2022-10-05T04:58:14.768Z,97.65
2022-10-05T05:01:23.706Z,96.54
2022-10-05T05:04:09.029Z,97.34
2022-10-05T05:06:40.828Z,97.22
2022-10-05T05:09:36.975Z,97.30
2022-10-05T05:12:27.763Z,96.91
2022-10-05T05:15:23.862Z,96.26
2022-10-05T05:18:06.031Z,96.17
2022-10-05T05:20:46.462Z,97.02
2022-10-05T05:23:22.638Z,96.75
2022-10-05T05:30:11.298Z,97.16
2022-10-05T05:33:07.632Z,97.93
2022-10-05T05:36:01.631Z,96.67
2022-10-05T05:38:35.209Z,96.70
2022-10-05T05:41:30.423Z,96.69
2022-10-05T05:44:10.059Z,96.81
2022-10-05T05:47:02.453Z,97.22
2022-10-05T05:50:07.328Z,96.44
2022-10-05T05:53:06.468Z,96.15
2022-10-05T05:55:41.006Z,95.88
2022-10-05T05:58:16.952Z,95.63
2022-10-05T06:00:53.957Z,95.42
2022-10-05T06:03:25.941Z,95.89
2022-10-05T06:06:00.510Z,96.40
2022-10-05T06:08:47.892Z,96.81
2022-10-05T06:11:29.285Z,95.69
2022-10-05T06:14:01.014Z,95.82
2022-10-05T06:16:38.591Z,95.28
2022-10-05T06:19:11.717Z,94.58
2022-10-05T06:21:56.361Z,95.33
2022-10-05T06:24:51.948Z,95.07
2022-10-05T06:27:37.011Z,95.44
2022-10-05T06:30:07.971Z,95.23
2022-10-05T06:33:00.123Z,94.60
2022-10-05T06:35:53.284Z,95.06
2022-10-05T06:38:39.163Z,95.04
2022-10-05T06:41:27.608Z,94.94
2022-10-05T06:44:07.900Z,94.75
2022-10-05T06:47:05.901Z,94.42
2022-10-05T06:50:03.839Z,94.88
2022-10-05T06:53:37.173Z,94.88
2022-10-05T06:56:23.937Z,94.90
2022-10-05T06:59:13.580Z,95.01
2022-10-05T07:01:58.461Z,93.81
2022-10-05T07:04:49.250Z,93.56
2022-10-05T07:07:37.680Z,93.86
2022-10-05T07:10:24.750Z,93.28
2022-10-05T07:13:17.484Z,93.38
2022-10-05T07:16:01.486Z,92.53
2022-10-05T07:18:47.988Z,91.94
2022-10-05T07:21:39.457Z,91.37
2022-10-05T07:24:38.090Z,92.37
2022-10-05T07:27:20.356Z,92.22
2022-10-05T07:30:01.419Z,90.80
2022-10-05T07:32:44.792Z,90.63
2022-10-05T07:35:39.416Z,90.31
2022-10-05T07:38:33.292Z,89.05
2022-10-05T07:41:14.505Z,90.38
2022-10-05T07:44:04.334Z,89.21
2022-10-05T07:46:38.522Z,88.91
2022-10-05T07:49:16.068Z,88.58
2022-10-05T07:51:48.271Z,88.60
2022-10-05T07:54:22.072Z,89.13
2022-10-05T07:56:55.976Z,88.49
2022-10-05T07:59:31.787Z,87.80
2022-10-05T08:02:17.670Z,87.15
2022-10-05T08:05:05.135Z,86.71
2022-10-05T08:07:34.788Z,86.97
2022-10-05T08:10:27.621Z,85.81
2022-10-05T08:13:07.563Z,85.21
2022-10-05T08:15:45.871Z,86.31
2022-10-05T08:18:54.471Z,85.79
2022-10-05T08:21:27.768Z,84.81
2022-10-05T08:23:58.908Z,84.71
2022-10-05T08:26:43.968Z,84.45
2022-10-05T08:29:22.512Z,84.12
2022-10-05T08:32:03.312Z,84.15
2022-10-05T08:34:37.290Z,83.51
2022-10-05T08:37:19.997Z,83.28
2022-10-05T08:40:00.505Z,82.52
2022-10-05T08:42:39.274Z,82.24
2022-10-05T08:45:23.679Z,82.03
2022-10-05T08:48:13.576Z,82.49
2022-10-05T08:51:15.870Z,82.53
2022-10-05T08:54:07.099Z,83.12
2022-10-05T08:56:43.106Z,82.88
2022-10-05T08:59:42.850Z,83.22
2022-10-05T09:02:20.596Z,82.61
2022-10-05T09:05:11.767Z,82.52
2022-10-05T09:07:44.066Z,82.37
2022-10-05T09:10:42.187Z,81.84
2022-10-05T09:13:42.844Z,81.89
2022-10-05T09:16:38.496Z,81.31
2022-10-05T09:19:32.544Z,80.93
2022-10-05T09:22:19.983Z,80.97
2022-10-05T09:24:59.482Z,81.32
2022-10-05T09:27:48.561Z,80.35
2022-10-05T09:30:29.257Z,79.83
2022-10-05T09:33:10.986Z,79.54
2022-10-05T09:36:04.560Z,79.96
2022-10-05T09:39:08.673Z,79.98
2022-10-05T09:41:34.974Z,81.13
2022-10-05T09:44:04.435Z,80.48
2022-10-05T09:46:44.318Z,79.53
2022-10-05T09:49:42.230Z,78.74
2022-10-05T09:52:27.375Z,78.38
2022-10-05T09:55:33.282Z,77.61
2022-10-05T09:58:38.036Z,77.98
2022-10-05T10:01:39.284Z,77.82
2022-10-05T10:04:10.068Z,77.32
2022-10-05T10:06:55.009Z,76.50
2022-10-05T10:09:46.719Z,75.06
2022-10-05T10:12:28.338Z,74.38
2022-10-05T10:15:18.231Z,74.66
2022-10-05T10:18:05.455Z,75.00
2022-10-05T10:21:01.886Z,74.18
2022-10-05T10:24:11.018Z,74.35
2022-10-05T10:27:11.573Z,73.91
2022-10-05T10:30:00.992Z,75.16
2022-10-05T10:32:55.327Z,73.46
2022-10-05T10:35:33.374Z,73.83
2022-10-05T10:38:30.885Z,72.50
2022-10-05T10:41:12.255Z,72.73
2022-10-05T10:43:54.007Z,73.38
2022-10-05T10:46:37.782Z,72.81
2022-10-05T10:49:41.198Z,73.71
2022-10-05T10:52:24.772Z,73.85
2022-10-05T10:55:21.179Z,73.70
2022-10-05T10:58:06.255Z,73.24
2022-10-05T11:01:10.962Z,70.94
2022-10-05T11:04:18.507Z,70.50
2022-10-05T11:07:09.890Z,70.82
2022-10-05T11:10:15.287Z,70.58
2022-10-05T11:13:19.179Z,70.51
2022-10-05T11:16:26.128Z,70.19
2022-10-05T11:19:21.714Z,70.12
2022-10-05T11:22:09.527Z,70.09
2022-10-05T11:24:57.957Z,69.57
2022-10-05T11:27:41.687Z,68.85
2022-10-05T11:30:55.649Z,68.20
2022-10-05T11:33:21.999Z,70.12
2022-10-05T11:36:07.003Z,69.49
2022-10-05T11:39:02.041Z,69.26
2022-10-05T11:41:49.895Z,69.46
2022-10-05T11:44:57.543Z,69.33
2022-10-05T11:47:45.577Z,69.64
2022-10-05T11:50:12.031Z,70.25
2022-10-05T11:52:49.272Z,70.55
2022-10-05T11:55:26.303Z,68.56
2022-10-05T11:57:58.705Z,67.96
2022-10-05T12:00:31.674Z,67.65
2022-10-05T12:03:24.601Z,67.49
2022-10-05T12:06:19.364Z,66.08
2022-10-05T12:09:00.686Z,65.55
2022-10-05T12:11:57.940Z,65.92
2022-10-05T12:14:34.343Z,65.76
2022-10-05T12:17:11.085Z,65.35
2022-10-05T12:20:00.210Z,64.49
2022-10-05T12:22:40.483Z,64.64
2022-10-05T12:25:19.118Z,64.43
2022-10-05T12:27:51.995Z,63.01
2022-10-05T12:30:55.291Z,62.64
2022-10-05T12:33:30.775Z,62.74
2022-10-05T12:36:05.512Z,62.74
2022-10-05T12:38:45.019Z,61.48
2022-10-05T12:41:25.322Z,61.51
2022-10-05T12:44:06.367Z,61.58
2022-10-05T12:47:10.082Z,60.72
2022-10-05T12:50:15.025Z,60.47
2022-10-05T12:53:24.483Z,59.14
2022-10-05T12:56:18.897Z,58.85
2022-10-05T12:58:57.673Z,59.04
2022-10-05T13:01:43.285Z,59.12
2022-10-05T13:04:26.078Z,58.45
2022-10-05T13:07:09.464Z,57.37
2022-10-05T13:09:42.792Z,57.41
2022-10-05T13:12:35.297Z,56.89
2022-10-05T13:15:15.195Z,57.39
2022-10-05T13:17:54.543Z,56.42
2022-10-05T13:21:01.146Z,56.41
2022-10-05T13:23:57.571Z,56.68
2022-10-05T13:26:32.434Z,56.69
2022-10-05T13:29:23.656Z,56.52
2022-10-05T13:32:03.626Z,56.90
2022-10-05T13:34:50.199Z,57.14
2022-10-05T13:37:33.848Z,57.45
2022-10-05T13:40:19.084Z,57.13
2022-10-05T13:43:04.030Z,57.15
2022-10-05T13:45:51.249Z,56.48
2022-10-05T13:48:47.268Z,56.54
2022-10-05T13:51:24.866Z,57.93
2022-10-05T13:54:00.934Z,56.96
2022-10-05T13:56:33.429Z,58.20
2022-10-05T13:59:28.133Z,58.58
2022-10-05T14:02:36.891Z,56.76
2022-10-05T14:05:15.671Z,56.66
2022-10-05T14:07:55.499Z,56.69
2022-10-05T14:10:43.691Z,56.99
2022-10-05T14:13:13.348Z,57.58
2022-10-05T14:15:42.304Z,57.84
2022-10-05T14:18:24.459Z,57.79
2022-10-05T14:21:12.682Z,57.56
2022-10-05T14:23:39.276Z,57.66
2022-10-05T14:26:35.567Z,57.78
2022-10-05T14:29:14.159Z,58.42
2022-10-05T14:31:50.770Z,58.93
2022-10-05T14:34:39.232Z,58.44
2022-10-05T14:37:20.755Z,59.01
2022-10-05T14:39:49.888Z,58.83
2022-10-05T14:42:25.222Z,58.56
2022-10-05T14:45:11.877Z,58.56
2022-10-05T14:48:00.201Z,58.75
2022-10-05T14:50:29.747Z,59.26
2022-10-05T14:53:11.078Z,58.85
2022-10-05T14:55:46.811Z,58.74
2022-10-05T14:58:42.861Z,58.95
2022-10-05T15:01:35.168Z,58.82
2022-10-05T15:04:26.051Z,58.87
2022-10-05T15:07:22.076Z,58.77
2022-10-05T15:10:06.834Z,59.37
2022-10-05T15:12:37.774Z,58.90
2022-10-05T15:15:27.397Z,59.23
2022-10-05T15:18:15.850Z,59.48
2022-10-05T15:20:52.312Z,59.63
2022-10-05T15:23:40.675Z,59.58
2022-10-05T15:26:38.452Z,60.02
2022-10-05T15:29:35.083Z,60.45
2022-10-05T15:32:25.268Z,61.44
2022-10-05T15:35:25.875Z,61.52
2022-10-05T15:37:55.075Z,62.51
2022-10-05T15:40:37.307Z,62.11
2022-10-05T15:43:11.399Z,62.19
2022-10-05T15:45:44.122Z,62.15
2022-10-05T15:48:36.156Z,62.74
2022-10-05T15:51:30.565Z,64.00
2022-10-05T15:54:24.360Z,63.84
2022-10-05T15:56:59.272Z,64.25
2022-10-05T15:59:56.990Z,64.09
2022-10-05T16:02:33.012Z,63.97
2022-10-05T16:05:12.067Z,64.84
2022-10-05T16:08:04.701Z,64.74
2022-10-05T16:10:36.928Z,65.13
2022-10-05T16:13:12.256Z,64.91
2022-10-05T16:16:12.550Z,64.75
2022-10-05T16:18:53.306Z,65.62
2022-10-05T16:21:36.376Z,65.54
2022-10-05T16:24:15.683Z,65.48
2022-10-05T16:26:59.528Z,65.40
2022-10-05T16:29:35.966Z,65.26
2022-10-05T16:32:16.523Z,65.84
2022-10-05T16:34:59.913Z,66.19
2022-10-05T16:37:58.436Z,66.26
2022-10-05T16:41:01.904Z,67.25
2022-10-05T16:43:40.626Z,67.79
2022-10-05T16:46:27.727Z,67.43
2022-10-05T16:49:16.210Z,68.55
2022-10-05T16:51:59.719Z,68.78
2022-10-05T16:54:47.868Z,69.26
2022-10-05T16:57:36.560Z,69.55
2022-10-05T17:00:30.658Z,69.92
2022-10-05T17:03:18.362Z,70.39
2022-10-05T17:06:02.399Z,70.28
2022-10-05T17:08:49.853Z,71.66
2022-10-05T17:11:27.546Z,73.25
2022-10-05T17:14:15.948Z,72.29
2022-10-05T17:17:06.974Z,73.21
2022-10-05T17:19:39.321Z,75.47
2022-10-05T17:22:26.397Z,74.63
2022-10-05T17:25:18.257Z,76.16
2022-10-05T17:28:16.405Z,76.07
2022-10-05T17:30:58.980Z,76.48
2022-10-05T17:33:31.245Z,76.98
2022-10-05T17:36:08.543Z,76.38
2022-10-05T17:38:34.898Z,77.70
2022-10-05T17:41:21.811Z,77.37
2022-10-05T17:44:16.963Z,77.40
2022-10-05T17:47:00.738Z,78.72
2022-10-05T17:50:13.786Z,79.36
2022-10-05T17:53:02.282Z,78.28
2022-10-05T17:55:32.096Z,78.65
2022-10-05T17:58:19.906Z,79.10
2022-10-05T18:01:04.436Z,80.25
2022-10-05T18:03:47.479Z,79.94
2022-10-05T18:06:25.944Z,80.16
2022-10-05T18:09:22.851Z,81.71
2022-10-05T18:12:17.781Z,81.83
2022-10-05T18:14:58.705Z,82.20
2022-10-05T18:17:43.772Z,83.02
2022-10-05T18:20:27.047Z,82.58
2022-10-05T18:23:15.572Z,83.14
2022-10-05T18:25:56.593Z,83.48
2022-10-05T18:28:28.609Z,82.52
2022-10-05T18:31:30.477Z,82.30
2022-10-05T18:34:26.154Z,83.11
2022-10-05T18:37:16.852Z,83.42
2022-10-05T18:39:59.003Z,83.77
2022-10-05T18:42:43.896Z,83.31
2022-10-05T18:45:38.928Z,83.31
2022-10-05T18:48:25.499Z,84.62
2022-10-05T18:51:22.786Z,83.53
2022-10-05T18:54:25.893Z,82.83
2022-10-05T18:56:52.913Z,83.93
2022-10-05T18:59:49.775Z,83.81
2022-10-05T19:02:25.401Z,84.33
2022-10-05T19:05:29.279Z,84.29
2022-10-05T19:08:13.529Z,84.93
2022-10-05T19:10:50.713Z,84.34
2022-10-05T19:13:37.684Z,84.90
2022-10-05T19:16:23.752Z,85.46
2022-10-05T19:19:14.263Z,85.26
2022-10-05T19:21:49.862Z,85.70
2022-10-05T19:24:37.574Z,86.04
2022-10-05T19:27:26.262Z,85.34
2022-10-05T19:30:18.825Z,85.53
2022-10-05T19:33:04.997Z,86.07
2022-10-05T19:36:02.028Z,86.34
2022-10-05T19:38:44.581Z,86.00
2022-10-05T19:41:19.908Z,85.50
2022-10-05T19:44:10.923Z,85.87
2022-10-05T19:46:58.038Z,86.15
2022-10-05T19:49:49.219Z,86.12
2022-10-05T19:52:21.077Z,86.71
2022-10-05T19:55:00.463Z,86.15
2022-10-05T19:57:26.864Z,85.80
2022-10-05T19:59:56.604Z,86.20
2022-10-05T20:02:26.922Z,85.38
2022-10-05T20:04:55.051Z,85.52
2022-10-05T20:07:22.853Z,86.03
2022-10-05T20:09:50.691Z,84.93
2022-10-05T20:12:17.082Z,85.41
2022-10-05T20:15:02.230Z,85.55
2022-10-05T20:17:48.047Z,85.96
2022-10-05T20:20:47.106Z,85.61
2022-10-05T20:23:19.963Z,86.24
2022-10-05T20:26:06.708Z,85.76
2022-10-05T20:28:33.601Z,85.66
2022-10-05T20:31:00.151Z,85.57
2022-10-05T20:33:27.518Z,85.76
2022-10-05T20:35:54.600Z,85.72
2022-10-05T20:38:21.808Z,85.97
2022-10-05T20:40:48.571Z,85.41
2022-10-05T20:43:15.238Z,85.18
2022-10-05T20:45:43.290Z,85.85
2022-10-05T20:48:11.002Z,85.53
2022-10-05T20:50:37.467Z,85.80
2022-10-05T20:53:09.639Z,85.43
2022-10-05T20:55:38.074Z,85.57
2022-10-05T20:58:04.451Z,85.41
2022-10-05T21:00:50.840Z,85.60
2022-10-05T21:03:18.557Z,85.68
2022-10-05T21:05:46.055Z,85.51
2022-10-05T21:08:12.434Z,86.04
2022-10-05T21:10:38.814Z,85.91
2022-10-05T21:13:05.882Z,85.61
2022-10-05T21:15:32.511Z,85.96
2022-10-05T21:17:58.907Z,85.72
2022-10-05T21:20:25.327Z,85.24
2022-10-05T21:22:51.713Z,85.84
2022-10-05T21:25:18.119Z,85.75
2022-10-05T21:27:44.715Z,85.87
2022-10-05T21:30:11.426Z,85.89
2022-10-05T21:32:43.230Z,85.44
2022-10-05T21:35:10.730Z,85.82
2022-10-05T21:37:37.108Z,86.06
2022-10-05T21:40:03.702Z,85.71
2022-10-05T21:42:30.108Z,85.94
2022-10-05T21:44:56.510Z,85.71
2022-10-05T21:47:22.956Z,85.95
2022-10-05T21:49:49.424Z,85.88
2022-10-05T21:52:15.823Z,86.00
2022-10-05T21:54:42.206Z,86.38
2022-10-05T21:57:12.016Z,85.93
2022-10-05T21:59:39.387Z,85.92
2022-10-05T22:02:05.954Z,86.12
2022-10-05T22:04:32.321Z,86.17
2022-10-05T22:06:59.195Z,86.37
2022-10-05T22:09:25.611Z,85.95
2022-10-05T22:11:52.110Z,86.25
2022-10-05T22:14:18.538Z,86.30
2022-10-05T22:16:45.019Z,87.22
2022-10-05T22:19:16.343Z,87.77
2022-10-05T22:21:42.826Z,88.18
2022-10-05T22:24:11.567Z,87.72
2022-10-05T22:26:39.893Z,87.26
2022-10-05T22:29:06.358Z,87.97
2022-10-05T22:31:32.927Z,88.17
2022-10-05T22:33:59.353Z,87.96
2022-10-05T22:36:26.065Z,88.57
2022-10-05T22:38:52.555Z,88.38
2022-10-05T22:41:19.442Z,88.96
2022-10-05T22:43:50.163Z,88.70
2022-10-05T22:46:17.119Z,88.56
2022-10-05T22:48:43.542Z,88.84
2022-10-05T22:51:10.301Z,88.65
2022-10-05T22:53:37.011Z,89.23
2022-10-05T22:56:12.023Z,89.27
2022-10-05T22:58:39.626Z,89.01
2022-10-05T23:01:11.937Z,89.12
2022-10-05T23:03:38.424Z,90.11
2022-10-05T23:06:11.198Z,90.14
2022-10-05T23:08:38.469Z,90.25
2022-10-05T23:11:11.191Z,89.62
2022-10-05T23:13:37.915Z,89.60
2022-10-05T23:16:09.655Z,89.91
2022-10-05T23:18:36.122Z,89.86
2022-10-05T23:21:03.122Z,90.56
2022-10-05T23:23:29.507Z,90.81
2022-10-05T23:26:00.433Z,91.26
2022-10-05T23:28:28.008Z,91.23
2022-10-05T23:31:02.920Z,90.88
2022-10-05T23:33:29.767Z,91.01
2022-10-05T23:36:00.087Z,92.01
2022-10-05T23:38:27.096Z,91.80
2022-10-05T23:40:53.712Z,91.52
2022-10-05T23:43:20.103Z,91.06
2022-10-05T23:45:46.964Z,90.65
2022-10-05T23:48:13.435Z,91.41
2022-10-05T23:50:40.244Z,91.22
2022-10-05T23:53:06.855Z,91.40
2022-10-05T23:55:33.234Z,91.44
2022-10-05T23:57:59.623Z,91.42
